KMDH Weather | Aviation | SIU

Home
Southern Illinois University

CONTACT

SIU.EDU

Aviation - Weather

College of Applied Sciences and Arts

KMDH Weather

NOTICE: Although all weather products are taken from the National Weather Service, this data should be used only as a supplement to a formal weather briefing.

Last Updated: Saturday, August 18th, 2018, 6:04 am
Information on this page is updated every 5 minutes.


METARS

KMDH 181052Z AUTO 25003KT 1/4SM FG VV002 20/20 A2997 RMK AO2 SLP145 T02000200

KMDH 180958Z AUTO 00000KT 1/4SM FG VV003 19/19 A2997 RMK AO2 T01940194

KMDH 180952Z AUTO 00000KT 3/4SM BR CLR 20/20 A2997 RMK AO2 SLP144 T02000200

KMDH 180943Z AUTO 00000KT 1 3/4SM BR CLR 21/20 A2997 RMK AO2 T02060200

KMDH 180852Z AUTO 24003KT 9SM SCT090 BKN120 21/21 A2997 RMK AO2 SLP144 T02110206

KMWA 181055Z AUTO 00000KT 2SM BR BKN065 OVC090 20/20 A2998 RMK AO2 T01990199

KMWA 181035Z AUTO 00000KT 2SM BR BKN090 20/20 A2998 RMK AO2 VIS 3/4V5 T02010201

KMWA 181015Z AUTO 00000KT 3SM BR SCT090 21/20 A2998 RMK AO2 T02050204

KMWA 180955Z AUTO 00000KT 7SM SCT090 21/21 A2998 RMK AO2 T02090207

KMWA 180935Z AUTO 00000KT 7SM SCT017 SCT090 SCT120 21/21 A2998 RMK AO2 T02120212

KMWA 180915Z AUTO 00000KT 2 1/2SM BR SCT090 BKN120 21/21 A2998 RMK AO2 VIS 1

KMWA 180855Z AUTO 00000KT 4SM BR BKN110 21/21 A2998 RMK AO2 T02110211

KMWA 180835Z AUTO 00000KT 10SM BKN100 21/21 A2998 RMK AO2 T02140211

KMWA 180815Z AUTO 00000KT 7SM OVC110 21/21 A2998 RMK AO2 T02130212

KCGI 181053Z AUTO 29004KT 10SM BKN085 OVC100 22/21 A2997 RMK AO2 SLP146

KCGI 181001Z AUTO 00000KT 8SM SCT003 SCT011 OVC100 22/21 A2997 RMK AO2 T02220211

KCGI 180953Z AUTO 00000KT 9SM BKN003 BKN011 OVC100 22/21 A2997 RMK AO2 SLP145

KCGI 180939Z AUTO 21004KT 7SM SCT002 SCT011 OVC100 22/21 A2997 RMK AO2 T02220211

KCGI 180926Z AUTO 22003KT 6SM BR BKN002 OVC100 22/21 A2997 RMK AO2 T02220211 $

KCGI 180918Z AUTO 21003KT 2SM R10/5500VP6000FT BR OVC002 22/22 A2997 RMK AO2

KCGI 180911Z AUTO 00000KT 3/4SM R10/3000VP6000FT BR OVC002 22/22 A2997 RMK AO2

KCGI 180900Z AUTO 00000KT 1 3/4SM R10/3500VP6000FT BR OVC002 22/22 A2997 RMK AO2

KCGI 180853Z AUTO 00000KT 6SM BR BKN004 OVC095 22/22 A2997 RMK AO2 CIG 001V006

KCGI 180832Z AUTO 24003KT 7SM OVC004 22/22 A2997 RMK AO2 CIG 003V007 T02220217 $

KCGI 180818Z AUTO 24003KT 10SM BKN005 BKN100 22/22 A2997 RMK AO2 CIG 003V007

KCGI 180803Z AUTO 29003KT 9SM FEW005 SCT100 22/21 A2997 RMK AO2 T02170206 $

KSAR 181055Z AUTO 30003KT 7SM CLR 21/21 A2999 RMK AO2 T02060206

KSAR 181035Z AUTO 29003KT 5SM BR CLR 21/21 A2999 RMK AO2 T02070207

KSAR 181015Z AUTO 00000KT 4SM BR SCT002 21/21 A2999 RMK AO2 T02080208

KSAR 180955Z AUTO 28003KT 1/4SM FG OVC002 21/21 A2999 RMK AO2 T02100210

KSAR 180935Z AUTO 30004KT 1/2SM FG OVC002 21/21 A2999 RMK AO2 T02100210

KSAR 180915Z AUTO 30003KT 10SM CLR 21/21 A2999 RMK AO2 T02080208

KSAR 180855Z AUTO 29003KT 10SM CLR 21/21 A2999 RMK AO2 T02070207

KSAR 180835Z AUTO 27004KT 7SM CLR 21/21 A2999 RMK AO2 T02080208

KSAR 180815Z AUTO 29004KT 10SM CLR 21/21 A2999 RMK AO2 T02100210

KFAM 181056Z AUTO 30004KT 10SM CLR 21/19 A3001 RMK AO2 SLP151 T02060194

KFAM 180956Z AUTO 29003KT 10SM CLR 21/19 A3001 RMK AO2 SLP151 T02060194

KFAM 180856Z AUTO 28003KT 10SM CLR 21/20 A3001 RMK AO2 SLP150 T02110200 56004

KMVN 181056Z AUTO 00000KT 1/4SM FG BKN003 20/20 A2997 RMK AO2 SLP143 T02000200

KMVN 181030Z AUTO 00000KT 1/4SM FG VV003 19/19 A2997 RMK AO2

KMVN 181021Z AUTO 00000KT 1/2SM FG VV003 19/19 A2997 RMK AO2

KMVN 181017Z AUTO 00000KT 3/4SM BR CLR 20/20 A2997 RMK AO2

KMVN 181014Z AUTO 00000KT 1 1/4SM BR CLR 21/21 A2997 RMK AO2 VIS 3/4V3

KMVN 181005Z AUTO 00000KT 2 1/2SM BR CLR 21/21 A2997 RMK AO2

KMVN 180956Z AUTO 00000KT 1 1/4SM BR CLR 21/21 A2997 RMK AO2 VIS 3/4V3 SLP145

KMVN 180948Z AUTO 00000KT 1 1/2SM BR CLR 21/21 A2997 RMK AO2 VIS 3/4V3

KMVN 180926Z AUTO 00000KT 3SM BR FEW002 21/21 A2997 RMK AO2

KMVN 180908Z AUTO 22003KT 4SM BR CLR 21/21 A2998 RMK AO2

KMVN 180856Z AUTO 00000KT 2SM BR SCT095 21/21 A2998 RMK AO2 SLP145 T02110211

KMVN 180853Z AUTO 00000KT 1 3/4SM BR SCT095 21/21 A2998 RMK AO2

KMVN 180804Z AUTO 00000KT 3SM BR CLR 22/21 A2996 RMK AO2

KHSB 181055Z AUTO 00000KT 5SM BR BKN090 21/21 A2997 RMK AO2 T02070207

KCIR 181055Z AUTO 25003KT 7SM OVC004 22/22 A2997 RMK AO2 T02220222

KPAH 181053Z 22003KT 8SM OVC005 23/22 A2997 RMK AO2 SLP143 T02280217 $

KPOF 181053Z AUTO 23004KT 9SM BKN003 22/22 A2998 RMK AO2 SLP147 T02220222 $

KFAM 181056Z AUTO 30004KT 10SM CLR 21/19 A3001 RMK AO2 SLP151 T02060194

KBLV 181056Z AUTO 33003KT 10SM CLR 21/20 A2997 RMK AO2 SLP148 T02110199 $

KSUS 181054Z COR 24003KT 10SM FEW041 SCT250 20/19 A2999 RMK AO2 SLP147 T02000194

KCPS 181053Z AUTO 00000KT 10SM CLR 21/19 A2998 RMK AO2 SLP148 T02060194

KSTL 181051Z 31006KT 10SM FEW039 FEW120 SCT250 21/21 A3000 RMK AO2 SLP146

KTBN 180956Z AUTO 00000KT 10SM CLR 19/18 A3004 RMK AO2 SLP165 T01860178 $

KVIH 181053Z AUTO 00000KT 10SM CLR 18/17 A3004 RMK AO2 SLP161 T01830172

KENL 181055Z AUTO 00000KT 2 1/2SM BR OVC002 20/20 A2997 RMK AO2 T02030203

KMTO 181053Z AUTO 04005KT 1/2SM FG VV002 20/19 A2997 RMK AO2 SLP144 T02000194

KFWC 181055Z AUTO 00000KT 4SM BR SCT090 20/20 A2995 RMK AO1 T01960196

KCUL 181032Z AUTO 00000KT 2 1/2SM BR BKN011 BKN049 21/21 A2996 RMK AO2

KEVV 181054Z 26004KT 10SM SCT065 BKN080 BKN110 23/22 A2996 RMK AO2 SLP142

KOWB 181056Z 19003KT 8SM OVC100 23/22 A2997

KEHR 181056Z AUTO 21004KT 6SM BR OVC100 22/22 A2997 RMK AO2 SLP152 T02220217

KCEY 181055Z AUTO 22005KT 10SM FEW006 OVC018 22/22 A3000 RMK AO1

KHOP 181056Z AUTO 23005KT 10SM CLR 22/22 A2999 RMK AO2 SLP152 T02210221 $

KMKL 181053Z AUTO 22004KT 10SM OVC034 23/22 A3002 RMK AO2 SLP160 T02280222

KDYR 181056Z AUTO VRB03KT 10SM FEW006 SCT090 22/22 A3001 RMK AO2 SLP170

KARG 181056Z AUTO 00000KT 10SM 21/21 A2999 RMK AO2 SLP153 T02110206 $

KJBR 181053Z AUTO 25003KT 10SM CLR 22/22 A2999 RMK AO2 SLP153 T02170217

KUNO 181053Z AUTO 01003KT 10SM CLR 20/19 A3004 RMK AO2 SLP159 T02000189

KALN 181055Z AUTO 00000KT 7SM CLR 19/19 A2999 RMK AO2 T01890189

KALN 181055Z AUTO 00000KT 7SM CLR 19/19 A2999 RMK AO2 T01890189

KCOU 181054Z AUTO 31003KT 10SM CLR 20/19 A3004 RMK AO2 SLP162 T02000189

KSPI 181052Z 00000KT 4SM R04/1600V3000FT BR BKN002 20/20 A3000 RMK AO2 SLP153

KAJG 181055Z AUTO 00000KT 3SM BR SCT002 SCT012 20/20 A2997 RMK AO2 T01990195

KM30 181055Z AUTO 24003KT 10SM OVC005 23/22 A2998 RMK AO2 T02260220

KDEC 181054Z 03005KT 5SM BR CLR 18/18 A2999 RMK AO2 SLP149 T01830183

KIJX 181055Z AUTO 00000KT 2 1/2SM BR CLR 18/18 A3000 RMK AO2 T01800178


TAFS

KEVV 180520Z 1806/1906 00000KT P6SM FEW025 SCT150

        FM181100 28001KT P6SM SCT008 BKN060

        FM181200 00000KT P6SM VCTS BKN010CB

        FM181600 33003KT P6SM VCSH SCT020 BKN030

        FM182200 VRB05KT P6SM FEW030 SCT080

KCGI 180931Z 1810/1906 VRB03KT 6SM BR BKN002

        FM181300 31003KT P6SM BKN008

        FM181330 33004KT P6SM SCT015 BKN090

        FM181700 34005KT P6SM SCT025 BKN090

        FM182100 29006KT P6SM SCT035 BKN050

        FM182300 02006KT P6SM FEW035 SCT110

KPAH 181011Z 1810/1906 VRB03KT 6SM BR OVC003

        FM181400 30004KT P6SM SCT008 BKN040

        FM182000 36006KT P6SM FEW040 SCT080

        FM190100 35002KT P6SM FEW050

KSPI 181043Z 1811/1906 VRB05KT 2SM BR SKC

        TEMPO 1811/1813 1/2SM FG

        FM181400 03005KT P6SM SKC

        FM181900 02006KT P6SM SCT030 BKN070

KSTL 180907Z 1809/1912 32005KT P6SM SCT120

        FM181300 34005KT P6SM FEW010 SCT120

        FM181600 36006KT P6SM BKN050

        FM190100 04005KT P6SM FEW025 SCT250

KDEC 181043Z 1811/1906 VRB05KT 1SM BR SCT003

        TEMPO 1811/1813 1/2SM FG BKN003

        FM181400 03006KT P6SM SCT025

        FM181900 04007KT P6SM VCSH SCT030 SCT090

KOWB 180520Z 1806/1906 23002KT P6SM FEW030 BKN140

        FM181200 29003KT P6SM VCTS SCT015CB BKN045

        FM181700 33003KT P6SM VCSH SCT020 BKN030

        FM182300 VRB04KT P6SM VCSH FEW025 SCT110

        FM190100 VRB03KT P6SM SCT025 BKN120

        FM190400 VRB04KT P6SM FEW050

KSUS 180520Z 1806/1906 VRB02KT P6SM FEW240

        FM181100 36005KT 6SM BR FEW010 BKN070

        FM181300 02006KT P6SM BKN080

        FM190100 VRB04KT P6SM FEW250

TAF KBLV 180800Z 1808/1914 31006KT 4800 BR SKC QNH2993INS

        BECMG 1811/1812 33009KT 8000 BR FEW010 SCT020 QNH2995INS

        BECMG 1820/1821 01012KT 9999 NSW SCT030 QNH2991INS

        BECMG 1823/1824 01006KT 9999 SCT020 QNH2991INS TX30/1820Z TN19/1908Z


Winds Aloft



Pilot Reports

No pilot reports found for area.



Area Forecast



Significant Weather

WAUS45 KKCI 180845 SLCT WA 180845 AIRMET TANGO UPDT 1 FOR TURB VALID UNTIL 181500 AIRMET TURB...ID MT WY FROM 30S YXC TO 40NW HVR TO 50NNW ISN TO 70NW RAP TO 70E DDY TO 30S BPI TO 40SW BOI TO 30S YXC MOD TURB BTN FL280 AND FL380. CONDS CONTG BYD 15Z THRU 21Z.
WAUS43 KKCI 180845 CHIS WA 180845 AIRMET SIERRA UPDT 3 FOR IFR AND MTN OBSCN VALID UNTIL 181500 AIRMET IFR...ND SD NE MN IA MO WI LM LS MI LH IL IN KY FROM 40WNW BRD TO 30ENE MSP TO 50WSW GRB TO SSM TO YVV TO 30SE ECK TO FWA TO CVG TO 40WSW CVG TO 50E FAM TO OVR TO 40SE ABR TO 70S FAR TO 40WNW BRD CIG BLW 010/VIS BLW 3SM BR/FG. CONDS ENDG 12-15Z.